Terminal Aerodrome Forecast
Issued by NWS

Home | Current Version | Previous Version | Text Only | Print | Product List | Glossary On
Versions: 1 2 3 4 5 6 7 8 9 10 11 12
755
FTUS46 KHNX 221725
TAFMER
TAF
KMER 221725Z 2218/2318 33010KT P6SM SCT050 OVC110
      TEMPO 2218/2222 5SM -RA BR BKN050
     FM230200 32005KT P6SM SCT050 BKN100=

USA.gov is the U.S. government's official web portal to all federal, state and local government web resources and services.